sensor_id;sensor_type;location;lat;lon;timestamp;P1;durP1;ratioP1;P2;durP2;ratioP2
14599;SDS011;7386;45.586;12.854;2023-04-30T00:02:08;14.50;;;10.80;;
14599;SDS011;7386;45.586;12.854;2023-04-30T00:04:36;14.47;;;12.10;;
14599;SDS011;7386;45.586;12.854;2023-04-30T00:07:05;16.00;;;13.23;;
14599;SDS011;7386;45.586;12.854;2023-04-30T00:09:33;17.07;;;13.43;;
14599;SDS011;7386;45.586;12.854;2023-04-30T00:12:02;16.23;;;13.07;;
14599;SDS011;7386;45.586;12.854;2023-04-30T00:14:30;15.03;;;11.87;;
14599;SDS011;7386;45.586;12.854;2023-04-30T00:17:00;14.53;;;12.10;;
14599;SDS011;7386;45.586;12.854;2023-04-30T00:19:29;16.60;;;12.73;;
14599;SDS011;7386;45.586;12.854;2023-04-30T00:21:57;15.07;;;12.57;;
14599;SDS011;7386;45.586;12.854;2023-04-30T00:24:26;14.97;;;12.57;;
14599;SDS011;7386;45.586;12.854;2023-04-30T00:26:55;15.73;;;12.50;;
14599;SDS011;7386;45.586;12.854;2023-04-30T00:29:24;13.97;;;11.60;;
14599;SDS011;7386;45.586;12.854;2023-04-30T00:31:52;13.63;;;11.77;;
14599;SDS011;7386;45.586;12.854;2023-04-30T00:34:22;14.40;;;12.10;;
14599;SDS011;7386;45.586;12.854;2023-04-30T00:36:51;14.70;;;11.97;;
14599;SDS011;7386;45.586;12.854;2023-04-30T00:39:19;14.87;;;11.53;;
14599;SDS011;7386;45.586;12.854;2023-04-30T00:41:47;13.93;;;12.03;;
14599;SDS011;7386;45.586;12.854;2023-04-30T00:44:16;14.37;;;11.77;;
14599;SDS011;7386;45.586;12.854;2023-04-30T00:46:44;12.37;;;10.73;;
14599;SDS011;7386;45.586;12.854;2023-04-30T00:49:13;16.37;;;11.80;;
14599;SDS011;7386;45.586;12.854;2023-04-30T00:51:43;12.67;;;11.23;;
14599;SDS011;7386;45.586;12.854;2023-04-30T00:54:12;14.83;;;11.93;;
14599;SDS011;7386;45.586;12.854;2023-04-30T00:56:41;14.13;;;11.93;;
14599;SDS011;7386;45.586;12.854;2023-04-30T00:59:10;14.13;;;12.27;;
14599;SDS011;7386;45.586;12.854;2023-04-30T01:01:38;13.60;;;12.17;;
14599;SDS011;7386;45.586;12.854;2023-04-30T01:04:07;14.57;;;12.37;;
14599;SDS011;7386;45.586;12.854;2023-04-30T01:06:36;14.43;;;11.60;;
14599;SDS011;7386;45.586;12.854;2023-04-30T01:09:06;14.80;;;12.23;;
14599;SDS011;7386;45.586;12.854;2023-04-30T01:11:39;14.33;;;11.90;;
14599;SDS011;7386;45.586;12.854;2023-04-30T01:14:16;14.03;;;11.73;;
14599;SDS011;7386;45.586;12.854;2023-04-30T01:16:50;12.73;;;10.80;;
14599;SDS011;7386;45.586;12.854;2023-04-30T01:19:26;12.90;;;11.43;;
14599;SDS011;7386;45.586;12.854;2023-04-30T01:21:56;13.77;;;12.17;;
14599;SDS011;7386;45.586;12.854;2023-04-30T01:27:23;16.03;;;14.00;;
14599;SDS011;7386;45.586;12.854;2023-04-30T01:29:58;15.70;;;13.87;;
14599;SDS011;7386;45.586;12.854;2023-04-30T01:32:28;18.20;;;16.23;;
14599;SDS011;7386;45.586;12.854;2023-04-30T01:34:57;17.93;;;15.83;;
14599;SDS011;7386;45.586;12.854;2023-04-30T01:37:30;18.27;;;15.80;;
14599;SDS011;7386;45.586;12.854;2023-04-30T01:40:11;17.40;;;15.47;;
14599;SDS011;7386;45.586;12.854;2023-04-30T01:42:44;20.33;;;18.13;;
14599;SDS011;7386;45.586;12.854;2023-04-30T01:45:25;22.80;;;18.83;;
14599;SDS011;7386;45.586;12.854;2023-04-30T01:48:02;21.33;;;18.17;;
14599;SDS011;7386;45.586;12.854;2023-04-30T01:50:32;21.00;;;18.57;;
14599;SDS011;7386;45.586;12.854;2023-04-30T01:53:05;21.67;;;18.97;;
14599;SDS011;7386;45.586;12.854;2023-04-30T01:55:34;23.77;;;20.10;;
14599;SDS011;7386;45.586;12.854;2023-04-30T01:58:04;25.33;;;21.57;;
14599;SDS011;7386;45.586;12.854;2023-04-30T02:00:36;25.87;;;21.87;;
14599;SDS011;7386;45.586;12.854;2023-04-30T02:03:05;26.63;;;22.57;;
14599;SDS011;7386;45.586;12.854;2023-04-30T02:05:34;28.40;;;23.17;;
14599;SDS011;7386;45.586;12.854;2023-04-30T02:08:02;27.53;;;22.87;;
14599;SDS011;7386;45.586;12.854;2023-04-30T02:10:31;29.20;;;23.57;;
14599;SDS011;7386;45.586;12.854;2023-04-30T02:12:59;27.57;;;23.17;;
14599;SDS011;7386;45.586;12.854;2023-04-30T02:15:28;30.00;;;24.17;;
14599;SDS011;7386;45.586;12.854;2023-04-30T02:17:58;30.27;;;24.37;;
14599;SDS011;7386;45.586;12.854;2023-04-30T02:20:26;29.73;;;24.10;;
14599;SDS011;7386;45.586;12.854;2023-04-30T02:22:55;31.20;;;24.93;;
14599;SDS011;7386;45.586;12.854;2023-04-30T02:25:23;30.73;;;24.60;;
14599;SDS011;7386;45.586;12.854;2023-04-30T02:27:52;31.23;;;26.03;;
14599;SDS011;7386;45.586;12.854;2023-04-30T02:30:21;31.50;;;24.43;;
14599;SDS011;7386;45.586;12.854;2023-04-30T02:32:49;32.53;;;25.73;;
14599;SDS011;7386;45.586;12.854;2023-04-30T02:35:19;32.07;;;24.90;;
14599;SDS011;7386;45.586;12.854;2023-04-30T02:37:48;32.63;;;25.13;;
14599;SDS011;7386;45.586;12.854;2023-04-30T02:40:16;38.00;;;25.80;;
14599;SDS011;7386;45.586;12.854;2023-04-30T02:42:45;32.30;;;24.80;;
14599;SDS011;7386;45.586;12.854;2023-04-30T02:45:13;30.97;;;24.23;;
14599;SDS011;7386;45.586;12.854;2023-04-30T02:47:42;29.93;;;23.50;;
14599;SDS011;7386;45.586;12.854;2023-04-30T02:50:10;29.17;;;23.73;;
14599;SDS011;7386;45.586;12.854;2023-04-30T02:52:41;28.17;;;23.43;;
14599;SDS011;7386;45.586;12.854;2023-04-30T02:55:09;30.27;;;24.43;;
14599;SDS011;7386;45.586;12.854;2023-04-30T02:57:38;29.90;;;25.73;;
14599;SDS011;7386;45.586;12.854;2023-04-30T03:00:07;32.33;;;27.40;;
14599;SDS011;7386;45.586;12.854;2023-04-30T03:02:35;31.90;;;26.63;;
14599;SDS011;7386;45.586;12.854;2023-04-30T03:05:04;38.70;;;30.93;;
14599;SDS011;7386;45.586;12.854;2023-04-30T03:07:33;41.03;;;30.57;;
14599;SDS011;7386;45.586;12.854;2023-04-30T03:10:03;37.17;;;31.13;;
14599;SDS011;7386;45.586;12.854;2023-04-30T03:12:32;38.40;;;31.37;;
14599;SDS011;7386;45.586;12.854;2023-04-30T03:15:00;38.97;;;31.93;;
14599;SDS011;7386;45.586;12.854;2023-04-30T03:17:29;43.43;;;33.80;;
14599;SDS011;7386;45.586;12.854;2023-04-30T03:19:57;44.10;;;35.07;;
14599;SDS011;7386;45.586;12.854;2023-04-30T03:22:26;43.10;;;33.93;;
14599;SDS011;7386;45.586;12.854;2023-04-30T03:24:54;45.03;;;33.60;;
14599;SDS011;7386;45.586;12.854;2023-04-30T03:27:25;44.70;;;34.57;;
14599;SDS011;7386;45.586;12.854;2023-04-30T03:29:53;42.70;;;33.73;;
14599;SDS011;7386;45.586;12.854;2023-04-30T03:32:22;41.33;;;33.47;;
14599;SDS011;7386;45.586;12.854;2023-04-30T03:34:50;45.80;;;34.87;;
14599;SDS011;7386;45.586;12.854;2023-04-30T03:37:19;47.57;;;37.53;;
14599;SDS011;7386;45.586;12.854;2023-04-30T03:39:47;45.73;;;36.50;;
14599;SDS011;7386;45.586;12.854;2023-04-30T03:42:16;46.50;;;35.87;;
14599;SDS011;7386;45.586;12.854;2023-04-30T03:44:46;45.53;;;35.53;;
14599;SDS011;7386;45.586;12.854;2023-04-30T03:47:14;47.30;;;36.60;;
14599;SDS011;7386;45.586;12.854;2023-04-30T03:49:43;44.67;;;36.43;;
14599;SDS011;7386;45.586;12.854;2023-04-30T03:52:11;45.27;;;36.40;;
14599;SDS011;7386;45.586;12.854;2023-04-30T03:54:40;44.57;;;36.33;;
14599;SDS011;7386;45.586;12.854;2023-04-30T03:57:08;47.73;;;37.10;;
14599;SDS011;7386;45.586;12.854;2023-04-30T03:59:39;46.30;;;36.47;;
14599;SDS011;7386;45.586;12.854;2023-04-30T04:02:09;47.03;;;35.97;;
14599;SDS011;7386;45.586;12.854;2023-04-30T04:04:38;46.90;;;34.67;;
14599;SDS011;7386;45.586;12.854;2023-04-30T04:07:06;44.37;;;33.70;;
14599;SDS011;7386;45.586;12.854;2023-04-30T04:09:36;42.97;;;33.07;;
14599;SDS011;7386;45.586;12.854;2023-04-30T04:12:05;45.10;;;32.93;;
14599;SDS011;7386;45.586;12.854;2023-04-30T04:14:33;49.63;;;36.63;;
14599;SDS011;7386;45.586;12.854;2023-04-30T04:17:02;46.33;;;35.40;;
14599;SDS011;7386;45.586;12.854;2023-04-30T04:19:33;49.27;;;37.27;;
14599;SDS011;7386;45.586;12.854;2023-04-30T04:22:01;50.20;;;36.97;;
14599;SDS011;7386;45.586;12.854;2023-04-30T04:24:30;49.83;;;37.33;;
14599;SDS011;7386;45.586;12.854;2023-04-30T04:26:58;55.07;;;41.33;;
14599;SDS011;7386;45.586;12.854;2023-04-30T04:29:28;51.73;;;40.50;;
14599;SDS011;7386;45.586;12.854;2023-04-30T04:31:57;54.53;;;40.53;;
14599;SDS011;7386;45.586;12.854;2023-04-30T04:34:28;52.57;;;40.00;;
14599;SDS011;7386;45.586;12.854;2023-04-30T04:36:58;51.80;;;40.20;;
14599;SDS011;7386;45.586;12.854;2023-04-30T04:39:26;57.33;;;40.70;;
14599;SDS011;7386;45.586;12.854;2023-04-30T04:41:55;50.60;;;39.03;;
14599;SDS011;7386;45.586;12.854;2023-04-30T04:44:23;49.13;;;38.60;;
14599;SDS011;7386;45.586;12.854;2023-04-30T04:46:52;50.37;;;40.03;;
14599;SDS011;7386;45.586;12.854;2023-04-30T04:49:22;48.40;;;39.00;;
14599;SDS011;7386;45.586;12.854;2023-04-30T04:51:50;48.33;;;37.53;;
14599;SDS011;7386;45.586;12.854;2023-04-30T04:54:20;56.63;;;42.87;;
14599;SDS011;7386;45.586;12.854;2023-04-30T04:56:49;53.30;;;40.83;;
14599;SDS011;7386;45.586;12.854;2023-04-30T04:59:17;52.53;;;40.30;;
14599;SDS011;7386;45.586;12.854;2023-04-30T05:01:46;55.37;;;40.70;;
14599;SDS011;7386;45.586;12.854;2023-04-30T05:04:15;52.43;;;39.63;;
14599;SDS011;7386;45.586;12.854;2023-04-30T05:06:43;49.37;;;38.53;;
14599;SDS011;7386;45.586;12.854;2023-04-30T05:09:12;47.63;;;37.63;;
14599;SDS011;7386;45.586;12.854;2023-04-30T05:11:42;48.60;;;37.67;;
14599;SDS011;7386;45.586;12.854;2023-04-30T05:14:11;44.00;;;35.63;;
14599;SDS011;7386;45.586;12.854;2023-04-30T05:16:40;45.53;;;35.53;;
14599;SDS011;7386;45.586;12.854;2023-04-30T05:19:08;43.87;;;35.73;;
14599;SDS011;7386;45.586;12.854;2023-04-30T05:21:37;41.73;;;34.57;;
14599;SDS011;7386;45.586;12.854;2023-04-30T05:24:05;50.33;;;38.90;;
14599;SDS011;7386;45.586;12.854;2023-04-30T05:26:33;53.47;;;40.83;;
14599;SDS011;7386;45.586;12.854;2023-04-30T05:29:03;47.10;;;38.30;;
14599;SDS011;7386;45.586;12.854;2023-04-30T05:31:32;52.60;;;40.00;;
14599;SDS011;7386;45.586;12.854;2023-04-30T05:34:01;54.47;;;41.50;;
14599;SDS011;7386;45.586;12.854;2023-04-30T05:36:30;51.40;;;38.57;;
14599;SDS011;7386;45.586;12.854;2023-04-30T05:38:59;48.33;;;37.70;;
14599;SDS011;7386;45.586;12.854;2023-04-30T05:41:27;47.27;;;38.40;;
14599;SDS011;7386;45.586;12.854;2023-04-30T05:43:56;51.37;;;39.27;;
14599;SDS011;7386;45.586;12.854;2023-04-30T05:46:25;40.83;;;34.37;;
14599;SDS011;7386;45.586;12.854;2023-04-30T05:48:54;44.37;;;36.10;;
14599;SDS011;7386;45.586;12.854;2023-04-30T05:51:23;44.67;;;35.23;;
14599;SDS011;7386;45.586;12.854;2023-04-30T05:53:53;47.93;;;38.57;;
14599;SDS011;7386;45.586;12.854;2023-04-30T05:56:22;45.43;;;37.03;;
14599;SDS011;7386;45.586;12.854;2023-04-30T05:58:51;44.63;;;36.60;;
14599;SDS011;7386;45.586;12.854;2023-04-30T06:01:19;44.60;;;34.47;;
14599;SDS011;7386;45.586;12.854;2023-04-30T06:03:50;47.57;;;36.27;;
14599;SDS011;7386;45.586;12.854;2023-04-30T06:06:18;38.90;;;33.10;;
14599;SDS011;7386;45.586;12.854;2023-04-30T06:08:47;42.60;;;33.83;;
14599;SDS011;7386;45.586;12.854;2023-04-30T06:11:15;39.50;;;32.87;;
14599;SDS011;7386;45.586;12.854;2023-04-30T06:13:45;40.50;;;33.23;;
14599;SDS011;7386;45.586;12.854;2023-04-30T06:16:14;37.20;;;31.33;;
14599;SDS011;7386;45.586;12.854;2023-04-30T06:18:43;40.93;;;31.93;;
14599;SDS011;7386;45.586;12.854;2023-04-30T06:21:12;37.83;;;30.53;;
14599;SDS011;7386;45.586;12.854;2023-04-30T06:23:41;40.70;;;31.53;;
14599;SDS011;7386;45.586;12.854;2023-04-30T06:26:09;36.63;;;30.30;;
14599;SDS011;7386;45.586;12.854;2023-04-30T06:28:40;37.03;;;30.60;;
14599;SDS011;7386;45.586;12.854;2023-04-30T06:31:09;41.70;;;32.40;;
14599;SDS011;7386;45.586;12.854;2023-04-30T06:33:37;37.27;;;30.60;;
14599;SDS011;7386;45.586;12.854;2023-04-30T06:36:06;36.87;;;30.00;;
14599;SDS011;7386;45.586;12.854;2023-04-30T06:38:36;32.20;;;27.73;;
14599;SDS011;7386;45.586;12.854;2023-04-30T06:41:05;34.13;;;26.13;;
14599;SDS011;7386;45.586;12.854;2023-04-30T06:43:33;23.33;;;19.30;;
14599;SDS011;7386;45.586;12.854;2023-04-30T06:46:02;16.97;;;14.10;;
14599;SDS011;7386;45.586;12.854;2023-04-30T06:48:32;14.70;;;11.83;;
14599;SDS011;7386;45.586;12.854;2023-04-30T06:51:00;13.27;;;10.17;;
14599;SDS011;7386;45.586;12.854;2023-04-30T06:53:29;11.80;;;10.17;;
14599;SDS011;7386;45.586;12.854;2023-04-30T06:55:59;12.83;;;10.40;;
14599;SDS011;7386;45.586;12.854;2023-04-30T06:58:27;12.17;;;10.10;;
14599;SDS011;7386;45.586;12.854;2023-04-30T07:00:55;15.00;;;11.73;;
14599;SDS011;7386;45.586;12.854;2023-04-30T07:03:24;12.93;;;10.80;;
14599;SDS011;7386;45.586;12.854;2023-04-30T07:05:53;11.20;;;8.70;;
14599;SDS011;7386;45.586;12.854;2023-04-30T07:08:22;11.27;;;8.90;;
14599;SDS011;7386;45.586;12.854;2023-04-30T07:10:50;10.32;;;8.25;;
14599;SDS011;7386;45.586;12.854;2023-04-30T07:13:20;10.23;;;7.72;;
14599;SDS011;7386;45.586;12.854;2023-04-30T07:15:48;9.82;;;8.00;;
14599;SDS011;7386;45.586;12.854;2023-04-30T07:18:18;11.50;;;8.70;;
14599;SDS011;7386;45.586;12.854;2023-04-30T07:20:46;9.85;;;6.80;;
14599;SDS011;7386;45.586;12.854;2023-04-30T07:23:15;9.20;;;7.00;;
14599;SDS011;7386;45.586;12.854;2023-04-30T07:25:43;8.63;;;6.97;;
14599;SDS011;7386;45.586;12.854;2023-04-30T07:28:12;9.07;;;7.00;;
14599;SDS011;7386;45.586;12.854;2023-04-30T07:30:42;9.02;;;7.13;;
14599;SDS011;7386;45.586;12.854;2023-04-30T07:33:11;8.65;;;7.22;;
14599;SDS011;7386;45.586;12.854;2023-04-30T07:35:39;10.48;;;6.90;;
14599;SDS011;7386;45.586;12.854;2023-04-30T07:38:08;8.38;;;6.70;;
14599;SDS011;7386;45.586;12.854;2023-04-30T07:40:36;10.13;;;6.85;;
14599;SDS011;7386;45.586;12.854;2023-04-30T07:43:05;7.88;;;6.45;;
14599;SDS011;7386;45.586;12.854;2023-04-30T07:45:34;9.48;;;7.97;;
14599;SDS011;7386;45.586;12.854;2023-04-30T07:48:05;11.82;;;9.77;;
14599;SDS011;7386;45.586;12.854;2023-04-30T07:50:33;9.40;;;7.93;;
14599;SDS011;7386;45.586;12.854;2023-04-30T07:53:02;10.30;;;8.60;;
14599;SDS011;7386;45.586;12.854;2023-04-30T07:55:34;10.48;;;8.20;;
14599;SDS011;7386;45.586;12.854;2023-04-30T07:58:03;9.50;;;7.57;;
14599;SDS011;7386;45.586;12.854;2023-04-30T08:00:31;11.48;;;9.43;;
14599;SDS011;7386;45.586;12.854;2023-04-30T08:03:00;10.52;;;7.63;;
14599;SDS011;7386;45.586;12.854;2023-04-30T08:05:30;11.25;;;8.15;;
14599;SDS011;7386;45.586;12.854;2023-04-30T08:07:59;11.85;;;8.05;;
14599;SDS011;7386;45.586;12.854;2023-04-30T08:10:27;9.02;;;7.03;;
14599;SDS011;7386;45.586;12.854;2023-04-30T08:12:56;9.20;;;6.97;;
14599;SDS011;7386;45.586;12.854;2023-04-30T08:15:24;10.73;;;7.25;;
14599;SDS011;7386;45.586;12.854;2023-04-30T08:17:54;9.88;;;5.97;;
14599;SDS011;7386;45.586;12.854;2023-04-30T08:20:23;13.55;;;7.13;;
14599;SDS011;7386;45.586;12.854;2023-04-30T08:22:53;9.85;;;7.88;;
14599;SDS011;7386;45.586;12.854;2023-04-30T08:25:22;8.95;;;6.82;;
14599;SDS011;7386;45.586;12.854;2023-04-30T08:27:50;8.02;;;5.95;;
14599;SDS011;7386;45.586;12.854;2023-04-30T08:30:19;12.43;;;7.45;;
14599;SDS011;7386;45.586;12.854;2023-04-30T08:32:48;7.13;;;6.25;;
14599;SDS011;7386;45.586;12.854;2023-04-30T08:35:17;10.18;;;7.22;;
14599;SDS011;7386;45.586;12.854;2023-04-30T08:37:46;8.90;;;6.57;;
14599;SDS011;7386;45.586;12.854;2023-04-30T08:40:16;10.23;;;8.32;;
14599;SDS011;7386;45.586;12.854;2023-04-30T08:42:45;11.27;;;7.82;;
14599;SDS011;7386;45.586;12.854;2023-04-30T08:45:15;8.15;;;6.70;;
14599;SDS011;7386;45.586;12.854;2023-04-30T08:47:45;8.93;;;6.18;;
14599;SDS011;7386;45.586;12.854;2023-04-30T08:50:14;7.47;;;5.72;;
14599;SDS011;7386;45.586;12.854;2023-04-30T08:52:42;7.18;;;5.07;;
14599;SDS011;7386;45.586;12.854;2023-04-30T08:55:11;7.03;;;4.82;;
14599;SDS011;7386;45.586;12.854;2023-04-30T08:57:41;5.82;;;4.55;;
14599;SDS011;7386;45.586;12.854;2023-04-30T09:00:09;4.30;;;3.80;;
14599;SDS011;7386;45.586;12.854;2023-04-30T09:02:38;5.57;;;4.38;;
14599;SDS011;7386;45.586;12.854;2023-04-30T09:05:08;6.10;;;4.25;;
14599;SDS011;7386;45.586;12.854;2023-04-30T09:07:38;5.15;;;3.80;;
14599;SDS011;7386;45.586;12.854;2023-04-30T09:10:21;5.50;;;4.05;;
14599;SDS011;7386;45.586;12.854;2023-04-30T09:13:01;5.47;;;3.90;;
14599;SDS011;7386;45.586;12.854;2023-04-30T09:15:30;4.60;;;3.80;;
14599;SDS011;7386;45.586;12.854;2023-04-30T09:18:05;4.93;;;3.67;;
14599;SDS011;7386;45.586;12.854;2023-04-30T09:20:34;4.88;;;3.50;;
14599;SDS011;7386;45.586;12.854;2023-04-30T09:23:06;6.22;;;3.80;;
14599;SDS011;7386;45.586;12.854;2023-04-30T09:25:38;4.30;;;3.70;;
14599;SDS011;7386;45.586;12.854;2023-04-30T09:28:09;3.97;;;3.55;;
14599;SDS011;7386;45.586;12.854;2023-04-30T09:30:38;4.72;;;3.70;;
14599;SDS011;7386;45.586;12.854;2023-04-30T09:33:07;3.72;;;3.42;;
14599;SDS011;7386;45.586;12.854;2023-04-30T09:35:37;4.70;;;3.58;;
14599;SDS011;7386;45.586;12.854;2023-04-30T09:38:07;4.90;;;3.50;;
14599;SDS011;7386;45.586;12.854;2023-04-30T09:40:52;3.85;;;3.30;;
14599;SDS011;7386;45.586;12.854;2023-04-30T09:43:22;4.30;;;3.63;;
14599;SDS011;7386;45.586;12.854;2023-04-30T09:45:50;4.57;;;3.53;;
14599;SDS011;7386;45.586;12.854;2023-04-30T09:48:20;4.22;;;3.35;;
14599;SDS011;7386;45.586;12.854;2023-04-30T09:50:49;4.32;;;3.42;;
14599;SDS011;7386;45.586;12.854;2023-04-30T09:53:18;5.07;;;3.63;;
14599;SDS011;7386;45.586;12.854;2023-04-30T09:55:48;4.15;;;3.55;;
14599;SDS011;7386;45.586;12.854;2023-04-30T09:58:17;4.25;;;3.50;;
14599;SDS011;7386;45.586;12.854;2023-04-30T10:00:47;5.53;;;3.70;;
14599;SDS011;7386;45.586;12.854;2023-04-30T10:03:17;4.60;;;3.33;;
14599;SDS011;7386;45.586;12.854;2023-04-30T10:05:48;5.78;;;3.60;;
14599;SDS011;7386;45.586;12.854;2023-04-30T10:08:20;3.97;;;3.38;;
14599;SDS011;7386;45.586;12.854;2023-04-30T10:10:54;5.97;;;3.40;;
14599;SDS011;7386;45.586;12.854;2023-04-30T10:13:24;4.00;;;3.10;;
14599;SDS011;7386;45.586;12.854;2023-04-30T10:15:54;3.95;;;2.97;;
14599;SDS011;7386;45.586;12.854;2023-04-30T10:18:27;3.40;;;2.90;;
14599;SDS011;7386;45.586;12.854;2023-04-30T10:20:56;4.10;;;2.90;;
14599;SDS011;7386;45.586;12.854;2023-04-30T10:23:26;4.30;;;2.92;;
14599;SDS011;7386;45.586;12.854;2023-04-30T10:25:55;5.05;;;3.08;;
14599;SDS011;7386;45.586;12.854;2023-04-30T10:28:24;3.95;;;2.88;;
14599;SDS011;7386;45.586;12.854;2023-04-30T10:30:52;3.20;;;2.65;;
14599;SDS011;7386;45.586;12.854;2023-04-30T10:33:24;4.72;;;2.88;;
14599;SDS011;7386;45.586;12.854;2023-04-30T10:35:57;3.85;;;2.90;;
14599;SDS011;7386;45.586;12.854;2023-04-30T10:38:27;3.85;;;3.13;;
14599;SDS011;7386;45.586;12.854;2023-04-30T10:40:56;5.20;;;2.85;;
14599;SDS011;7386;45.586;12.854;2023-04-30T10:43:25;3.17;;;2.80;;
14599;SDS011;7386;45.586;12.854;2023-04-30T10:45:54;3.97;;;2.80;;
14599;SDS011;7386;45.586;12.854;2023-04-30T10:48:25;2.92;;;2.63;;
14599;SDS011;7386;45.586;12.854;2023-04-30T10:50:57;2.85;;;2.55;;
14599;SDS011;7386;45.586;12.854;2023-04-30T10:53:26;3.85;;;2.60;;
14599;SDS011;7386;45.586;12.854;2023-04-30T10:55:57;3.63;;;2.60;;
14599;SDS011;7386;45.586;12.854;2023-04-30T10:58:32;2.65;;;2.45;;
14599;SDS011;7386;45.586;12.854;2023-04-30T11:01:01;2.60;;;2.40;;
14599;SDS011;7386;45.586;12.854;2023-04-30T11:03:33;2.70;;;2.50;;
14599;SDS011;7386;45.586;12.854;2023-04-30T11:06:10;3.42;;;2.55;;
14599;SDS011;7386;45.586;12.854;2023-04-30T11:08:39;4.05;;;3.30;;
14599;SDS011;7386;45.586;12.854;2023-04-30T11:11:10;3.15;;;2.70;;
14599;SDS011;7386;45.586;12.854;2023-04-30T11:13:40;2.97;;;2.67;;
14599;SDS011;7386;45.586;12.854;2023-04-30T11:16:11;2.47;;;2.25;;
14599;SDS011;7386;45.586;12.854;2023-04-30T11:18:42;3.05;;;2.50;;
14599;SDS011;7386;45.586;12.854;2023-04-30T11:21:11;3.25;;;2.60;;
14599;SDS011;7386;45.586;12.854;2023-04-30T11:23:40;3.67;;;2.70;;
14599;SDS011;7386;45.586;12.854;2023-04-30T11:26:09;2.50;;;2.30;;
14599;SDS011;7386;45.586;12.854;2023-04-30T11:28:38;3.25;;;2.60;;
14599;SDS011;7386;45.586;12.854;2023-04-30T11:31:06;2.92;;;2.60;;
14599;SDS011;7386;45.586;12.854;2023-04-30T11:33:35;3.25;;;2.42;;
14599;SDS011;7386;45.586;12.854;2023-04-30T11:36:05;2.72;;;2.53;;
14599;SDS011;7386;45.586;12.854;2023-04-30T11:38:34;2.75;;;2.50;;
14599;SDS011;7386;45.586;12.854;2023-04-30T11:41:03;2.92;;;2.63;;
14599;SDS011;7386;45.586;12.854;2023-04-30T11:43:32;2.65;;;2.45;;
14599;SDS011;7386;45.586;12.854;2023-04-30T11:46:05;2.53;;;2.30;;
14599;SDS011;7386;45.586;12.854;2023-04-30T11:48:34;2.88;;;2.53;;
14599;SDS011;7386;45.586;12.854;2023-04-30T11:51:04;2.92;;;2.63;;
14599;SDS011;7386;45.586;12.854;2023-04-30T11:53:35;2.50;;;2.30;;
14599;SDS011;7386;45.586;12.854;2023-04-30T11:56:04;2.83;;;2.40;;
14599;SDS011;7386;45.586;12.854;2023-04-30T11:58:33;2.90;;;2.60;;
14599;SDS011;7386;45.586;12.854;2023-04-30T12:01:03;2.55;;;2.35;;
14599;SDS011;7386;45.586;12.854;2023-04-30T12:03:31;2.60;;;2.40;;
14599;SDS011;7386;45.586;12.854;2023-04-30T12:06:01;2.95;;;2.38;;
14599;SDS011;7386;45.586;12.854;2023-04-30T12:08:31;3.08;;;2.40;;
14599;SDS011;7386;45.586;12.854;2023-04-30T12:11:00;2.63;;;2.30;;
14599;SDS011;7386;45.586;12.854;2023-04-30T12:13:29;2.42;;;2.22;;
14599;SDS011;7386;45.586;12.854;2023-04-30T12:15:58;2.30;;;2.10;;
14599;SDS011;7386;45.586;12.854;2023-04-30T12:18:27;2.55;;;2.35;;
14599;SDS011;7386;45.586;12.854;2023-04-30T12:20:55;2.50;;;2.30;;
14599;SDS011;7386;45.586;12.854;2023-04-30T12:23:23;2.55;;;2.35;;
14599;SDS011;7386;45.586;12.854;2023-04-30T12:25:53;3.35;;;2.50;;
14599;SDS011;7386;45.586;12.854;2023-04-30T12:28:26;2.40;;;2.20;;
14599;SDS011;7386;45.586;12.854;2023-04-30T12:30:55;4.30;;;2.60;;
14599;SDS011;7386;45.586;12.854;2023-04-30T12:33:23;4.72;;;2.83;;
14599;SDS011;7386;45.586;12.854;2023-04-30T12:35:52;6.05;;;3.03;;
14599;SDS011;7386;45.586;12.854;2023-04-30T12:38:20;6.15;;;2.97;;
14599;SDS011;7386;45.586;12.854;2023-04-30T12:40:49;7.60;;;3.55;;
14599;SDS011;7386;45.586;12.854;2023-04-30T12:43:18;9.75;;;3.72;;
14599;SDS011;7386;45.586;12.854;2023-04-30T12:45:49;5.75;;;3.67;;
14599;SDS011;7386;45.586;12.854;2023-04-30T12:48:18;10.50;;;3.97;;
14599;SDS011;7386;45.586;12.854;2023-04-30T12:50:49;8.18;;;3.88;;
14599;SDS011;7386;45.586;12.854;2023-04-30T12:53:18;9.43;;;3.92;;
14599;SDS011;7386;45.586;12.854;2023-04-30T12:56:05;9.90;;;4.00;;
14599;SDS011;7386;45.586;12.854;2023-04-30T12:58:36;8.57;;;3.78;;
14599;SDS011;7386;45.586;12.854;2023-04-30T13:01:04;10.55;;;3.90;;
14599;SDS011;7386;45.586;12.854;2023-04-30T13:03:33;9.82;;;4.03;;
14599;SDS011;7386;45.586;12.854;2023-04-30T13:06:02;7.35;;;3.75;;
14599;SDS011;7386;45.586;12.854;2023-04-30T13:08:32;8.25;;;3.95;;
14599;SDS011;7386;45.586;12.854;2023-04-30T13:11:20;13.25;;;4.03;;
14599;SDS011;7386;45.586;12.854;2023-04-30T13:13:51;10.40;;;4.55;;
14599;SDS011;7386;45.586;12.854;2023-04-30T13:16:20;11.00;;;4.63;;
14599;SDS011;7386;45.586;12.854;2023-04-30T13:18:50;9.30;;;4.60;;
14599;SDS011;7386;45.586;12.854;2023-04-30T13:21:18;9.55;;;4.35;;
14599;SDS011;7386;45.586;12.854;2023-04-30T13:23:47;10.52;;;4.20;;
14599;SDS011;7386;45.586;12.854;2023-04-30T13:26:20;8.02;;;4.00;;
14599;SDS011;7386;45.586;12.854;2023-04-30T13:28:51;7.97;;;3.83;;
14599;SDS011;7386;45.586;12.854;2023-04-30T13:31:19;5.32;;;3.40;;
14599;SDS011;7386;45.586;12.854;2023-04-30T13:33:49;5.45;;;3.38;;
14599;SDS011;7386;45.586;12.854;2023-04-30T13:36:19;6.57;;;3.15;;
14599;SDS011;7386;45.586;12.854;2023-04-30T13:38:47;6.53;;;3.50;;
14599;SDS011;7386;45.586;12.854;2023-04-30T13:41:16;6.97;;;3.80;;
14599;SDS011;7386;45.586;12.854;2023-04-30T13:43:45;5.90;;;3.40;;
14599;SDS011;7386;45.586;12.854;2023-04-30T13:46:15;8.68;;;3.67;;
14599;SDS011;7386;45.586;12.854;2023-04-30T13:48:44;6.10;;;3.58;;
14599;SDS011;7386;45.586;12.854;2023-04-30T13:51:13;5.82;;;3.45;;
14599;SDS011;7386;45.586;12.854;2023-04-30T13:53:42;5.20;;;3.28;;
14599;SDS011;7386;45.586;12.854;2023-04-30T13:56:10;4.50;;;3.47;;
14599;SDS011;7386;45.586;12.854;2023-04-30T13:58:40;6.10;;;3.53;;
14599;SDS011;7386;45.586;12.854;2023-04-30T14:01:09;6.10;;;3.60;;
14599;SDS011;7386;45.586;12.854;2023-04-30T14:03:40;5.03;;;3.25;;
14599;SDS011;7386;45.586;12.854;2023-04-30T14:06:09;4.45;;;3.65;;
14599;SDS011;7386;45.586;12.854;2023-04-30T14:08:37;5.82;;;3.80;;
14599;SDS011;7386;45.586;12.854;2023-04-30T14:11:06;5.40;;;3.97;;
14599;SDS011;7386;45.586;12.854;2023-04-30T14:13:34;5.20;;;3.90;;
14599;SDS011;7386;45.586;12.854;2023-04-30T14:16:03;5.65;;;4.00;;
14599;SDS011;7386;45.586;12.854;2023-04-30T14:18:32;5.03;;;4.13;;
14599;SDS011;7386;45.586;12.854;2023-04-30T14:21:02;5.53;;;4.50;;
14599;SDS011;7386;45.586;12.854;2023-04-30T14:23:30;4.65;;;4.00;;
14599;SDS011;7386;45.586;12.854;2023-04-30T14:25:59;6.03;;;4.20;;
14599;SDS011;7386;45.586;12.854;2023-04-30T14:28:27;5.60;;;4.38;;
14599;SDS011;7386;45.586;12.854;2023-04-30T14:30:56;5.55;;;4.13;;
14599;SDS011;7386;45.586;12.854;2023-04-30T14:33:25;5.20;;;4.40;;
14599;SDS011;7386;45.586;12.854;2023-04-30T14:35:53;5.05;;;4.28;;
14599;SDS011;7386;45.586;12.854;2023-04-30T14:38:23;4.90;;;4.28;;
14599;SDS011;7386;45.586;12.854;2023-04-30T14:40:51;5.72;;;4.20;;
14599;SDS011;7386;45.586;12.854;2023-04-30T14:43:20;4.85;;;4.32;;
14599;SDS011;7386;45.586;12.854;2023-04-30T14:45:48;4.72;;;4.22;;
14599;SDS011;7386;45.586;12.854;2023-04-30T14:48:17;5.13;;;4.60;;
14599;SDS011;7386;45.586;12.854;2023-04-30T14:50:45;4.82;;;4.32;;